sensor_id;sensor_type;location;lat;lon;timestamp;noise_LAeq;noise_LA_min;noise_LA_max;noise_LA01;noise_LA95
69608;Laerm;57251;52.248;4.812;2024-01-11T00:00:03;36.04;33.04;42.60;;
69608;Laerm;57251;52.248;4.812;2024-01-11T00:00:14;33.93;32.32;37.84;;
69608;Laerm;57251;52.248;4.812;2024-01-11T00:00:24;34.83;32.38;42.38;;
69608;Laerm;57251;52.248;4.812;2024-01-11T00:00:35;33.51;32.20;36.61;;
69608;Laerm;57251;52.248;4.812;2024-01-11T00:00:45;33.53;31.86;35.48;;
69608;Laerm;57251;52.248;4.812;2024-01-11T00:00:55;33.63;32.06;35.13;;
69608;Laerm;57251;52.248;4.812;2024-01-11T00:01:08;33.88;32.51;35.69;;
69608;Laerm;57251;52.248;4.812;2024-01-11T00:01:18;33.50;32.18;35.14;;
69608;Laerm;57251;52.248;4.812;2024-01-11T00:01:28;33.75;32.13;38.75;;
69608;Laerm;57251;52.248;4.812;2024-01-11T00:01:39;33.66;32.06;36.38;;
69608;Laerm;57251;52.248;4.812;2024-01-11T00:01:49;34.61;32.22;38.37;;
69608;Laerm;57251;52.248;4.812;2024-01-11T00:01:59;35.14;33.20;38.72;;
69608;Laerm;57251;52.248;4.812;2024-01-11T00:02:09;35.42;33.04;38.74;;
69608;Laerm;57251;52.248;4.812;2024-01-11T00:02:20;34.62;32.54;38.77;;
69608;Laerm;57251;52.248;4.812;2024-01-11T00:02:30;35.30;32.51;41.03;;
69608;Laerm;57251;52.248;4.812;2024-01-11T00:02:40;34.17;32.06;35.87;;
69608;Laerm;57251;52.248;4.812;2024-01-11T00:02:50;35.01;32.97;37.76;;
69608;Laerm;57251;52.248;4.812;2024-01-11T00:03:01;35.14;33.20;37.32;;
69608;Laerm;57251;52.248;4.812;2024-01-11T00:03:11;34.46;32.42;36.26;;
69608;Laerm;57251;52.248;4.812;2024-01-11T00:03:21;33.99;32.45;35.67;;
69608;Laerm;57251;52.248;4.812;2024-01-11T00:03:31;34.97;33.07;37.80;;
69608;Laerm;57251;52.248;4.812;2024-01-11T00:03:42;34.12;32.72;35.68;;
69608;Laerm;57251;52.248;4.812;2024-01-11T00:03:52;35.92;32.91;39.78;;
69608;Laerm;57251;52.248;4.812;2024-01-11T00:04:02;36.10;32.99;40.18;;
69608;Laerm;57251;52.248;4.812;2024-01-11T00:04:13;35.97;33.08;39.49;;
69608;Laerm;57251;52.248;4.812;2024-01-11T00:04:23;35.65;33.39;42.21;;
69608;Laerm;57251;52.248;4.812;2024-01-11T00:04:34;35.03;32.21;37.53;;
69608;Laerm;57251;52.248;4.812;2024-01-11T00:04:44;34.49;32.31;36.79;;
69608;Laerm;57251;52.248;4.812;2024-01-11T00:04:54;34.39;32.59;37.20;;
69608;Laerm;57251;52.248;4.812;2024-01-11T00:05:04;34.32;32.50;36.68;;
69608;Laerm;57251;52.248;4.812;2024-01-11T00:05:15;33.95;32.26;35.58;;
69608;Laerm;57251;52.248;4.812;2024-01-11T00:05:25;33.90;32.08;36.03;;
69608;Laerm;57251;52.248;4.812;2024-01-11T00:05:36;33.61;32.27;34.95;;
69608;Laerm;57251;52.248;4.812;2024-01-11T00:05:46;33.83;31.96;35.27;;
69608;Laerm;57251;52.248;4.812;2024-01-11T00:05:56;34.36;32.67;36.84;;
69608;Laerm;57251;52.248;4.812;2024-01-11T00:06:06;34.24;32.72;35.90;;
69608;Laerm;57251;52.248;4.812;2024-01-11T00:06:17;35.12;33.28;37.18;;
69608;Laerm;57251;52.248;4.812;2024-01-11T00:06:27;35.08;32.94;37.59;;
69608;Laerm;57251;52.248;4.812;2024-01-11T00:06:44;34.63;33.11;36.18;;
69608;Laerm;57251;52.248;4.812;2024-01-11T00:06:54;35.78;33.34;39.62;;
69608;Laerm;57251;52.248;4.812;2024-01-11T00:07:04;35.82;33.17;43.41;;
69608;Laerm;57251;52.248;4.812;2024-01-11T00:07:15;35.46;33.39;41.37;;
69608;Laerm;57251;52.248;4.812;2024-01-11T00:07:25;34.24;32.47;35.96;;
69608;Laerm;57251;52.248;4.812;2024-01-11T00:07:35;34.04;32.19;36.29;;
69608;Laerm;57251;52.248;4.812;2024-01-11T00:07:46;33.91;32.16;35.71;;
69608;Laerm;57251;52.248;4.812;2024-01-11T00:07:56;34.38;32.10;37.94;;
69608;Laerm;57251;52.248;4.812;2024-01-11T00:08:06;34.64;32.53;42.38;;
69608;Laerm;57251;52.248;4.812;2024-01-11T00:08:16;33.94;32.27;35.37;;
69608;Laerm;57251;52.248;4.812;2024-01-11T00:08:27;34.03;31.99;36.57;;
69608;Laerm;57251;52.248;4.812;2024-01-11T00:08:37;33.88;32.48;35.06;;
69608;Laerm;57251;52.248;4.812;2024-01-11T00:08:47;34.86;32.78;38.29;;
69608;Laerm;57251;52.248;4.812;2024-01-11T00:08:57;35.36;33.16;38.08;;
69608;Laerm;57251;52.248;4.812;2024-01-11T00:09:08;36.41;33.60;39.33;;
69608;Laerm;57251;52.248;4.812;2024-01-11T00:09:18;35.43;33.38;39.63;;
69608;Laerm;57251;52.248;4.812;2024-01-11T00:09:28;34.82;33.05;36.75;;
69608;Laerm;57251;52.248;4.812;2024-01-11T00:09:39;34.45;32.75;36.30;;
69608;Laerm;57251;52.248;4.812;2024-01-11T00:09:50;35.02;32.94;40.90;;
69608;Laerm;57251;52.248;4.812;2024-01-11T00:10:00;33.88;32.51;35.53;;
69608;Laerm;57251;52.248;4.812;2024-01-11T00:10:11;34.48;32.77;41.82;;
69608;Laerm;57251;52.248;4.812;2024-01-11T00:10:22;35.00;32.52;38.95;;
69608;Laerm;57251;52.248;4.812;2024-01-11T00:10:32;34.99;32.74;40.58;;
69608;Laerm;57251;52.248;4.812;2024-01-11T00:10:43;35.32;32.98;37.73;;
69608;Laerm;57251;52.248;4.812;2024-01-11T00:10:53;35.92;32.80;45.16;;
69608;Laerm;57251;52.248;4.812;2024-01-11T00:11:03;34.57;32.76;37.08;;
69608;Laerm;57251;52.248;4.812;2024-01-11T00:11:13;34.84;32.66;37.62;;
69608;Laerm;57251;52.248;4.812;2024-01-11T00:11:24;35.06;32.92;38.69;;
69608;Laerm;57251;52.248;4.812;2024-01-11T00:11:34;34.87;32.80;36.98;;
69608;Laerm;57251;52.248;4.812;2024-01-11T00:11:44;34.46;32.76;36.25;;
69608;Laerm;57251;52.248;4.812;2024-01-11T00:11:54;34.35;32.93;37.11;;
69608;Laerm;57251;52.248;4.812;2024-01-11T00:12:05;35.19;33.08;39.78;;
69608;Laerm;57251;52.248;4.812;2024-01-11T00:12:16;35.54;32.96;39.63;;
69608;Laerm;57251;52.248;4.812;2024-01-11T00:12:26;35.09;32.18;38.76;;
69608;Laerm;57251;52.248;4.812;2024-01-11T00:12:36;35.85;33.07;38.61;;
69608;Laerm;57251;52.248;4.812;2024-01-11T00:12:46;34.53;32.53;37.75;;
69608;Laerm;57251;52.248;4.812;2024-01-11T00:12:57;35.08;32.41;41.19;;
69608;Laerm;57251;52.248;4.812;2024-01-11T00:13:07;39.16;33.10;48.59;;
69608;Laerm;57251;52.248;4.812;2024-01-11T00:13:17;34.55;33.05;36.78;;
69608;Laerm;57251;52.248;4.812;2024-01-11T00:13:27;34.90;33.04;37.08;;
69608;Laerm;57251;52.248;4.812;2024-01-11T00:13:38;34.73;33.06;37.33;;
69608;Laerm;57251;52.248;4.812;2024-01-11T00:13:48;35.03;32.93;37.56;;
69608;Laerm;57251;52.248;4.812;2024-01-11T00:13:58;34.82;32.86;37.12;;
69608;Laerm;57251;52.248;4.812;2024-01-11T00:14:08;35.41;32.90;38.27;;
69608;Laerm;57251;52.248;4.812;2024-01-11T00:14:19;34.75;32.80;37.89;;
69608;Laerm;57251;52.248;4.812;2024-01-11T00:14:29;34.34;32.27;40.65;;
69608;Laerm;57251;52.248;4.812;2024-01-11T00:14:40;33.92;32.08;38.96;;
69608;Laerm;57251;52.248;4.812;2024-01-11T00:14:50;33.89;31.93;35.60;;
69608;Laerm;57251;52.248;4.812;2024-01-11T00:15:00;34.35;32.84;35.59;;
69608;Laerm;57251;52.248;4.812;2024-01-11T00:15:10;34.20;32.58;35.91;;
69608;Laerm;57251;52.248;4.812;2024-01-11T00:15:21;34.17;32.41;36.31;;
69608;Laerm;57251;52.248;4.812;2024-01-11T00:15:31;34.73;32.88;36.86;;
69608;Laerm;57251;52.248;4.812;2024-01-11T00:15:41;34.58;32.79;36.34;;
69608;Laerm;57251;52.248;4.812;2024-01-11T00:15:52;34.56;32.93;38.65;;
69608;Laerm;57251;52.248;4.812;2024-01-11T00:16:02;34.61;33.06;37.93;;
69608;Laerm;57251;52.248;4.812;2024-01-11T00:16:12;34.43;32.13;36.55;;
69608;Laerm;57251;52.248;4.812;2024-01-11T00:16:22;34.69;32.44;37.47;;
69608;Laerm;57251;52.248;4.812;2024-01-11T00:16:33;34.44;33.09;36.23;;
69608;Laerm;57251;52.248;4.812;2024-01-11T00:16:43;34.12;32.55;35.52;;
69608;Laerm;57251;52.248;4.812;2024-01-11T00:16:53;34.63;32.99;37.58;;
69608;Laerm;57251;52.248;4.812;2024-01-11T00:17:03;34.15;32.53;36.13;;
69608;Laerm;57251;52.248;4.812;2024-01-11T00:17:14;35.86;33.13;38.69;;
69608;Laerm;57251;52.248;4.812;2024-01-11T00:17:25;35.49;33.05;45.56;;
69608;Laerm;57251;52.248;4.812;2024-01-11T00:17:36;34.64;32.87;36.29;;
69608;Laerm;57251;52.248;4.812;2024-01-11T00:17:46;35.24;32.91;37.29;;
69608;Laerm;57251;52.248;4.812;2024-01-11T00:17:56;34.89;32.83;38.52;;
69608;Laerm;57251;52.248;4.812;2024-01-11T00:18:07;34.56;32.80;40.03;;
69608;Laerm;57251;52.248;4.812;2024-01-11T00:18:17;36.72;33.01;48.82;;
69608;Laerm;57251;52.248;4.812;2024-01-11T00:18:27;37.28;33.00;46.13;;
69608;Laerm;57251;52.248;4.812;2024-01-11T00:18:38;36.08;33.11;50.76;;
69608;Laerm;57251;52.248;4.812;2024-01-11T00:18:48;35.61;33.02;41.81;;
69608;Laerm;57251;52.248;4.812;2024-01-11T00:18:59;34.72;32.64;37.07;;
69608;Laerm;57251;52.248;4.812;2024-01-11T00:19:10;35.32;33.51;39.45;;
69608;Laerm;57251;52.248;4.812;2024-01-11T00:19:20;35.37;33.12;38.07;;
69608;Laerm;57251;52.248;4.812;2024-01-11T00:19:30;34.81;32.98;38.05;;
69608;Laerm;57251;52.248;4.812;2024-01-11T00:19:41;34.54;32.75;37.19;;
69608;Laerm;57251;52.248;4.812;2024-01-11T00:19:52;34.40;32.72;36.30;;
69608;Laerm;57251;52.248;4.812;2024-01-11T00:20:02;35.34;33.00;49.21;;
69608;Laerm;57251;52.248;4.812;2024-01-11T00:20:13;34.12;32.42;36.70;;
69608;Laerm;57251;52.248;4.812;2024-01-11T00:20:23;34.66;32.74;37.44;;
69608;Laerm;57251;52.248;4.812;2024-01-11T00:20:33;36.16;32.85;42.08;;
69608;Laerm;57251;52.248;4.812;2024-01-11T00:20:44;36.28;33.78;40.53;;
69608;Laerm;57251;52.248;4.812;2024-01-11T00:20:55;34.56;32.39;36.97;;
69608;Laerm;57251;52.248;4.812;2024-01-11T00:21:05;35.09;32.97;45.89;;
69608;Laerm;57251;52.248;4.812;2024-01-11T00:21:15;34.10;32.46;35.33;;
69608;Laerm;57251;52.248;4.812;2024-01-11T00:21:25;33.91;32.38;36.34;;
69608;Laerm;57251;52.248;4.812;2024-01-11T00:21:36;34.50;32.61;37.49;;
69608;Laerm;57251;52.248;4.812;2024-01-11T00:21:46;34.52;32.55;38.13;;
69608;Laerm;57251;52.248;4.812;2024-01-11T00:21:56;34.01;32.38;36.03;;
69608;Laerm;57251;52.248;4.812;2024-01-11T00:22:06;34.26;31.93;37.83;;
69608;Laerm;57251;52.248;4.812;2024-01-11T00:22:17;35.12;32.76;41.73;;
69608;Laerm;57251;52.248;4.812;2024-01-11T00:22:27;36.33;33.12;44.86;;
69608;Laerm;57251;52.248;4.812;2024-01-11T00:22:37;36.68;33.73;41.83;;
69608;Laerm;57251;52.248;4.812;2024-01-11T00:22:48;39.64;34.12;48.89;;
69608;Laerm;57251;52.248;4.812;2024-01-11T00:22:58;34.97;33.07;37.07;;
69608;Laerm;57251;52.248;4.812;2024-01-11T00:23:08;36.61;33.27;41.17;;
69608;Laerm;57251;52.248;4.812;2024-01-11T00:23:19;35.30;33.00;38.79;;
69608;Laerm;57251;52.248;4.812;2024-01-11T00:23:29;34.39;32.32;37.28;;
69608;Laerm;57251;52.248;4.812;2024-01-11T00:23:39;34.42;32.84;38.64;;
69608;Laerm;57251;52.248;4.812;2024-01-11T00:23:49;34.31;32.61;36.72;;
69608;Laerm;57251;52.248;4.812;2024-01-11T00:23:59;34.32;32.77;36.73;;
69608;Laerm;57251;52.248;4.812;2024-01-11T00:24:10;33.79;31.92;35.29;;
69608;Laerm;57251;52.248;4.812;2024-01-11T00:24:20;34.13;32.52;36.83;;
69608;Laerm;57251;52.248;4.812;2024-01-11T00:24:30;33.72;32.45;35.54;;
69608;Laerm;57251;52.248;4.812;2024-01-11T00:24:41;33.35;32.01;34.91;;
69608;Laerm;57251;52.248;4.812;2024-01-11T00:24:51;33.64;32.10;35.12;;
69608;Laerm;57251;52.248;4.812;2024-01-11T00:25:02;33.95;32.26;39.18;;
69608;Laerm;57251;52.248;4.812;2024-01-11T00:25:12;33.60;32.33;35.15;;
69608;Laerm;57251;52.248;4.812;2024-01-11T00:25:22;33.54;31.82;34.82;;
69608;Laerm;57251;52.248;4.812;2024-01-11T00:25:33;33.60;32.34;35.02;;
69608;Laerm;57251;52.248;4.812;2024-01-11T00:25:43;33.60;31.90;35.03;;
69608;Laerm;57251;52.248;4.812;2024-01-11T00:25:54;34.45;32.43;42.07;;
69608;Laerm;57251;52.248;4.812;2024-01-11T00:26:04;33.83;32.54;35.67;;
69608;Laerm;57251;52.248;4.812;2024-01-11T00:26:14;33.91;31.94;35.43;;
69608;Laerm;57251;52.248;4.812;2024-01-11T00:26:24;33.72;32.00;35.56;;
69608;Laerm;57251;52.248;4.812;2024-01-11T00:26:35;34.16;31.91;41.91;;
69608;Laerm;57251;52.248;4.812;2024-01-11T00:26:46;33.60;32.02;35.14;;
69608;Laerm;57251;52.248;4.812;2024-01-11T00:26:56;33.48;31.94;34.85;;
69608;Laerm;57251;52.248;4.812;2024-01-11T00:27:06;34.73;32.13;45.67;;
69608;Laerm;57251;52.248;4.812;2024-01-11T00:27:17;33.34;31.74;35.54;;
69608;Laerm;57251;52.248;4.812;2024-01-11T00:27:27;33.89;32.19;35.52;;
69608;Laerm;57251;52.248;4.812;2024-01-11T00:27:37;33.78;32.13;36.09;;
69608;Laerm;57251;52.248;4.812;2024-01-11T00:27:47;34.29;32.25;37.76;;
69608;Laerm;57251;52.248;4.812;2024-01-11T00:27:58;34.54;32.47;38.37;;
69608;Laerm;57251;52.248;4.812;2024-01-11T00:28:08;34.90;32.90;36.82;;
69608;Laerm;57251;52.248;4.812;2024-01-11T00:28:18;33.39;31.98;34.96;;
69608;Laerm;57251;52.248;4.812;2024-01-11T00:28:28;33.58;31.41;42.05;;
69608;Laerm;57251;52.248;4.812;2024-01-11T00:28:39;33.67;31.58;36.53;;
69608;Laerm;57251;52.248;4.812;2024-01-11T00:28:49;33.53;31.91;34.82;;
69608;Laerm;57251;52.248;4.812;2024-01-11T00:28:59;33.83;32.02;39.64;;
69608;Laerm;57251;52.248;4.812;2024-01-11T00:29:09;35.40;32.05;41.59;;
69608;Laerm;57251;52.248;4.812;2024-01-11T00:29:20;34.80;31.58;41.72;;
69608;Laerm;57251;52.248;4.812;2024-01-11T00:29:30;34.03;32.36;36.36;;
69608;Laerm;57251;52.248;4.812;2024-01-11T00:29:40;34.16;32.50;36.87;;
69608;Laerm;57251;52.248;4.812;2024-01-11T00:29:50;33.72;32.09;35.20;;
69608;Laerm;57251;52.248;4.812;2024-01-11T00:30:01;34.32;32.38;37.33;;
69608;Laerm;57251;52.248;4.812;2024-01-11T00:30:11;34.48;32.23;37.00;;
69608;Laerm;57251;52.248;4.812;2024-01-11T00:30:21;34.74;32.48;38.51;;
69608;Laerm;57251;52.248;4.812;2024-01-11T00:30:33;35.26;32.77;38.85;;
69608;Laerm;57251;52.248;4.812;2024-01-11T00:30:43;35.26;32.98;39.40;;
69608;Laerm;57251;52.248;4.812;2024-01-11T00:30:54;34.27;32.44;37.52;;
69608;Laerm;57251;52.248;4.812;2024-01-11T00:31:04;34.61;32.80;37.06;;
69608;Laerm;57251;52.248;4.812;2024-01-11T00:31:14;34.26;32.42;37.50;;
69608;Laerm;57251;52.248;4.812;2024-01-11T00:31:25;34.35;32.89;40.38;;
69608;Laerm;57251;52.248;4.812;2024-01-11T00:31:35;34.36;32.20;38.00;;
69608;Laerm;57251;52.248;4.812;2024-01-11T00:31:47;33.93;32.27;35.95;;
69608;Laerm;57251;52.248;4.812;2024-01-11T00:31:57;34.07;32.32;40.36;;
69608;Laerm;57251;52.248;4.812;2024-01-11T00:32:08;34.30;32.77;38.50;;
69608;Laerm;57251;52.248;4.812;2024-01-11T00:32:18;34.83;32.67;39.57;;
69608;Laerm;57251;52.248;4.812;2024-01-11T00:32:28;35.01;32.93;39.90;;
69608;Laerm;57251;52.248;4.812;2024-01-11T00:32:39;35.85;33.55;38.27;;
69608;Laerm;57251;52.248;4.812;2024-01-11T00:32:49;35.23;32.90;40.23;;
69608;Laerm;57251;52.248;4.812;2024-01-11T00:32:59;34.52;32.90;36.13;;
69608;Laerm;57251;52.248;4.812;2024-01-11T00:33:09;35.07;32.66;38.28;;
69608;Laerm;57251;52.248;4.812;2024-01-11T00:33:20;34.42;32.67;36.21;;
69608;Laerm;57251;52.248;4.812;2024-01-11T00:33:30;34.59;32.84;37.00;;
69608;Laerm;57251;52.248;4.812;2024-01-11T00:33:41;34.71;32.82;36.81;;
69608;Laerm;57251;52.248;4.812;2024-01-11T00:33:51;34.86;33.14;37.03;;
69608;Laerm;57251;52.248;4.812;2024-01-11T00:34:01;36.16;33.08;40.59;;
69608;Laerm;57251;52.248;4.812;2024-01-11T00:34:11;34.78;32.65;38.31;;
69608;Laerm;57251;52.248;4.812;2024-01-11T00:34:22;34.13;32.46;36.01;;
69608;Laerm;57251;52.248;4.812;2024-01-11T00:34:32;34.08;32.53;35.85;;
69608;Laerm;57251;52.248;4.812;2024-01-11T00:34:42;34.31;32.46;36.07;;
69608;Laerm;57251;52.248;4.812;2024-01-11T00:34:53;34.16;32.57;35.93;;
69608;Laerm;57251;52.248;4.812;2024-01-11T00:35:03;34.79;32.56;37.09;;
69608;Laerm;57251;52.248;4.812;2024-01-11T00:35:14;34.21;32.26;35.69;;
69608;Laerm;57251;52.248;4.812;2024-01-11T00:35:24;34.86;32.64;39.05;;
69608;Laerm;57251;52.248;4.812;2024-01-11T00:35:34;36.63;32.36;49.56;;
69608;Laerm;57251;52.248;4.812;2024-01-11T00:35:44;43.65;32.41;64.72;;
69608;Laerm;57251;52.248;4.812;2024-01-11T00:35:55;35.10;31.91;42.48;;
69608;Laerm;57251;52.248;4.812;2024-01-11T00:36:05;34.37;32.08;42.04;;
69608;Laerm;57251;52.248;4.812;2024-01-11T00:36:18;33.70;31.59;36.86;;
69608;Laerm;57251;52.248;4.812;2024-01-11T00:36:30;34.60;32.27;41.54;;
69608;Laerm;57251;52.248;4.812;2024-01-11T00:36:40;34.65;32.33;40.05;;
69608;Laerm;57251;52.248;4.812;2024-01-11T00:36:50;35.26;33.33;37.85;;
69608;Laerm;57251;52.248;4.812;2024-01-11T00:37:01;35.05;32.92;37.55;;
69608;Laerm;57251;52.248;4.812;2024-01-11T00:37:11;34.41;32.84;36.23;;
69608;Laerm;57251;52.248;4.812;2024-01-11T00:37:21;34.72;33.10;39.46;;
69608;Laerm;57251;52.248;4.812;2024-01-11T00:37:31;34.26;32.63;35.98;;
69608;Laerm;57251;52.248;4.812;2024-01-11T00:37:42;34.22;32.65;36.75;;
69608;Laerm;57251;52.248;4.812;2024-01-11T00:37:52;34.12;32.47;36.06;;
69608;Laerm;57251;52.248;4.812;2024-01-11T00:38:02;33.87;32.62;37.32;;
69608;Laerm;57251;52.248;4.812;2024-01-11T00:38:13;34.27;32.09;43.66;;
69608;Laerm;57251;52.248;4.812;2024-01-11T00:38:23;34.54;32.35;42.10;;
69608;Laerm;57251;52.248;4.812;2024-01-11T00:38:34;35.27;32.82;41.94;;
69608;Laerm;57251;52.248;4.812;2024-01-11T00:38:44;34.29;32.57;38.05;;
69608;Laerm;57251;52.248;4.812;2024-01-11T00:38:54;33.89;32.50;35.32;;
69608;Laerm;57251;52.248;4.812;2024-01-11T00:39:05;33.66;32.01;35.92;;
69608;Laerm;57251;52.248;4.812;2024-01-11T00:39:15;34.01;32.38;35.45;;
69608;Laerm;57251;52.248;4.812;2024-01-11T00:39:25;33.73;32.44;35.43;;
69608;Laerm;57251;52.248;4.812;2024-01-11T00:39:35;33.71;32.13;34.92;;
69608;Laerm;57251;52.248;4.812;2024-01-11T00:39:46;33.84;32.28;36.06;;
69608;Laerm;57251;52.248;4.812;2024-01-11T00:39:56;33.48;32.09;35.81;;
69608;Laerm;57251;52.248;4.812;2024-01-11T00:40:06;33.88;31.94;35.88;;
69608;Laerm;57251;52.248;4.812;2024-01-11T00:40:17;33.49;32.05;37.32;;
69608;Laerm;57251;52.248;4.812;2024-01-11T00:40:27;33.72;32.37;36.30;;
69608;Laerm;57251;52.248;4.812;2024-01-11T00:40:37;34.66;32.17;40.76;;
69608;Laerm;57251;52.248;4.812;2024-01-11T00:40:48;34.93;32.45;44.93;;
69608;Laerm;57251;52.248;4.812;2024-01-11T00:40:59;34.37;32.39;36.50;;
69608;Laerm;57251;52.248;4.812;2024-01-11T00:41:09;34.86;33.11;37.32;;
69608;Laerm;57251;52.248;4.812;2024-01-11T00:41:19;34.98;32.72;37.65;;
69608;Laerm;57251;52.248;4.812;2024-01-11T00:41:29;34.94;32.96;38.37;;
69608;Laerm;57251;52.248;4.812;2024-01-11T00:41:39;34.63;32.52;37.19;;
69608;Laerm;57251;52.248;4.812;2024-01-11T00:41:50;35.76;32.85;41.02;;
69608;Laerm;57251;52.248;4.812;2024-01-11T00:42:01;34.59;32.70;37.68;;
69608;Laerm;57251;52.248;4.812;2024-01-11T00:42:12;35.04;33.12;36.99;;
69608;Laerm;57251;52.248;4.812;2024-01-11T00:42:22;35.18;32.75;38.57;;
69608;Laerm;57251;52.248;4.812;2024-01-11T00:42:32;34.03;32.34;35.63;;
69608;Laerm;57251;52.248;4.812;2024-01-11T00:42:44;34.42;31.74;37.58;;
69608;Laerm;57251;52.248;4.812;2024-01-11T00:42:55;33.75;32.36;36.11;;
69608;Laerm;57251;52.248;4.812;2024-01-11T00:43:05;33.69;32.25;37.61;;
69608;Laerm;57251;52.248;4.812;2024-01-11T00:43:15;33.48;32.12;36.71;;
69608;Laerm;57251;52.248;4.812;2024-01-11T00:43:25;33.44;32.19;35.51;;
69608;Laerm;57251;52.248;4.812;2024-01-11T00:43:36;33.42;31.79;38.96;;
69608;Laerm;57251;52.248;4.812;2024-01-11T00:43:46;33.81;32.40;35.23;;
69608;Laerm;57251;52.248;4.812;2024-01-11T00:43:56;34.21;32.30;36.28;;
69608;Laerm;57251;52.248;4.812;2024-01-11T00:44:06;34.17;32.24;36.25;;
69608;Laerm;57251;52.248;4.812;2024-01-11T00:44:17;33.89;32.05;35.57;;
69608;Laerm;57251;52.248;4.812;2024-01-11T00:44:27;33.83;32.35;35.56;;
69608;Laerm;57251;52.248;4.812;2024-01-11T00:44:37;33.87;32.14;36.14;;
69608;Laerm;57251;52.248;4.812;2024-01-11T00:44:48;34.25;32.16;39.37;;
69608;Laerm;57251;52.248;4.812;2024-01-11T00:44:59;33.71;32.29;35.49;;
69608;Laerm;57251;52.248;4.812;2024-01-11T00:45:09;33.46;31.74;34.96;;
69608;Laerm;57251;52.248;4.812;2024-01-11T00:45:20;33.40;31.96;34.75;;
69608;Laerm;57251;52.248;4.812;2024-01-11T00:45:30;33.70;32.05;35.26;;
69608;Laerm;57251;52.248;4.812;2024-01-11T00:45:40;34.17;32.34;35.74;;
69608;Laerm;57251;52.248;4.812;2024-01-11T00:45:50;33.70;31.90;35.60;;
69608;Laerm;57251;52.248;4.812;2024-01-11T00:46:01;34.13;32.31;37.44;;
69608;Laerm;57251;52.248;4.812;2024-01-11T00:46:11;34.75;32.46;41.16;;
69608;Laerm;57251;52.248;4.812;2024-01-11T00:46:21;33.90;32.20;37.13;;
69608;Laerm;57251;52.248;4.812;2024-01-11T00:46:31;34.90;33.15;38.08;;
69608;Laerm;57251;52.248;4.812;2024-01-11T00:46:42;35.64;33.69;39.62;;
69608;Laerm;57251;52.248;4.812;2024-01-11T00:46:52;35.60;32.71;40.10;;
69608;Laerm;57251;52.248;4.812;2024-01-11T00:47:03;34.89;33.02;39.00;;
69608;Laerm;57251;52.248;4.812;2024-01-11T00:47:13;36.85;32.26;46.18;;
69608;Laerm;57251;52.248;4.812;2024-01-11T00:47:23;35.46;33.25;39.00;;
69608;Laerm;57251;52.248;4.812;2024-01-11T00:47:33;36.23;33.20;41.38;;
69608;Laerm;57251;52.248;4.812;2024-01-11T00:47:44;35.68;33.14;42.13;;
69608;Laerm;57251;52.248;4.812;2024-01-11T00:47:54;34.18;32.50;35.94;;
69608;Laerm;57251;52.248;4.812;2024-01-11T00:48:04;34.02;32.90;35.44;;
69608;Laerm;57251;52.248;4.812;2024-01-11T00:48:14;33.96;32.62;35.97;;
69608;Laerm;57251;52.248;4.812;2024-01-11T00:48:25;34.15;32.31;36.46;;
69608;Laerm;57251;52.248;4.812;2024-01-11T00:48:36;35.06;33.19;38.10;;
69608;Laerm;57251;52.248;4.812;2024-01-11T00:48:46;34.20;32.54;36.56;;
69608;Laerm;57251;52.248;4.812;2024-01-11T00:48:56;34.53;32.43;37.62;;
69608;Laerm;57251;52.248;4.812;2024-01-11T00:49:06;34.41;32.29;37.99;;
69608;Laerm;57251;52.248;4.812;2024-01-11T00:49:17;35.05;32.61;39.58;;
69608;Laerm;57251;52.248;4.812;2024-01-11T00:49:27;36.28;32.76;39.78;;
69608;Laerm;57251;52.248;4.812;2024-01-11T00:49:37;37.96;34.42;42.25;;
69608;Laerm;57251;52.248;4.812;2024-01-11T00:49:47;37.53;34.89;39.38;;
69608;Laerm;57251;52.248;4.812;2024-01-11T00:49:57;37.39;34.92;40.58;;
69608;Laerm;57251;52.248;4.812;2024-01-11T00:50:08;36.56;34.23;39.30;;
69608;Laerm;57251;52.248;4.812;2024-01-11T00:50:19;38.23;34.19;42.77;;
69608;Laerm;57251;52.248;4.812;2024-01-11T00:50:30;36.10;34.19;39.27;;
69608;Laerm;57251;52.248;4.812;2024-01-11T00:50:40;35.47;33.76;37.43;;
69608;Laerm;57251;52.248;4.812;2024-01-11T00:50:51;35.00;32.54;38.14;;
69608;Laerm;57251;52.248;4.812;2024-01-11T00:51:03;34.72;33.15;36.93;;
69608;Laerm;57251;52.248;4.812;2024-01-11T00:51:14;33.89;32.42;35.60;;
69608;Laerm;57251;52.248;4.812;2024-01-11T00:51:25;34.32;32.50;48.30;;
69608;Laerm;57251;52.248;4.812;2024-01-11T00:51:35;34.40;32.70;36.04;;
69608;Laerm;57251;52.248;4.812;2024-01-11T00:51:46;34.18;32.42;35.87;;
69608;Laerm;57251;52.248;4.812;2024-01-11T00:51:56;34.67;32.28;37.36;;
69608;Laerm;57251;52.248;4.812;2024-01-11T00:52:07;34.49;32.86;36.64;;
69608;Laerm;57251;52.248;4.812;2024-01-11T00:52:17;34.37;32.74;35.83;;
69608;Laerm;57251;52.248;4.812;2024-01-11T00:52:27;35.58;32.75;37.73;;
69608;Laerm;57251;52.248;4.812;2024-01-11T00:52:38;35.16;33.09;37.57;;
69608;Laerm;57251;52.248;4.812;2024-01-11T00:52:48;34.49;32.72;36.15;;
69608;Laerm;57251;52.248;4.812;2024-01-11T00:52:58;36.08;33.73;39.19;;
69608;Laerm;57251;52.248;4.812;2024-01-11T00:53:09;37.90;35.09;41.71;;
69608;Laerm;57251;52.248;4.812;2024-01-11T00:53:20;37.83;35.13;41.14;;
69608;Laerm;57251;52.248;4.812;2024-01-11T00:53:30;35.72;33.33;37.83;;
69608;Laerm;57251;52.248;4.812;2024-01-11T00:53:41;34.34;32.59;37.00;;
69608;Laerm;57251;52.248;4.812;2024-01-11T00:53:51;34.26;32.75;36.02;;
69608;Laerm;57251;52.248;4.812;2024-01-11T00:54:01;33.93;32.54;35.62;;
69608;Laerm;57251;52.248;4.812;2024-01-11T00:54:11;33.95;32.10;35.77;;
69608;Laerm;57251;52.248;4.812;2024-01-11T00:54:22;34.17;32.53;35.84;;
69608;Laerm;57251;52.248;4.812;2024-01-11T00:54:33;33.86;32.38;35.32;;
69608;Laerm;57251;52.248;4.812;2024-01-11T00:54:44;34.81;33.23;36.63;;
69608;Laerm;57251;52.248;4.812;2024-01-11T00:54:54;36.63;33.17;40.10;;
69608;Laerm;57251;52.248;4.812;2024-01-11T00:55:04;41.07;36.73;44.91;;
69608;Laerm;57251;52.248;4.812;2024-01-11T00:55:15;45.17;42.39;48.90;;
69608;Laerm;57251;52.248;4.812;2024-01-11T00:55:26;47.64;44.66;49.85;;
69608;Laerm;57251;52.248;4.812;2024-01-11T00:55:36;52.83;47.60;56.16;;
69608;Laerm;57251;52.248;4.812;2024-01-11T00:55:46;55.50;52.34;58.50;;
69608;Laerm;57251;52.248;4.812;2024-01-11T00:55:57;59.03;56.17;61.44;;
69608;Laerm;57251;52.248;4.812;2024-01-11T00:56:19;59.23;56.29;60.97;;
69608;Laerm;57251;52.248;4.812;2024-01-11T00:56:29;54.08;47.43;60.89;;
69608;Laerm;57251;52.248;4.812;2024-01-11T00:56:40;46.94;40.22;52.24;;
69608;Laerm;57251;52.248;4.812;2024-01-11T00:56:50;42.27;36.57;45.06;;
69608;Laerm;57251;52.248;4.812;2024-01-11T00:57:00;37.92;35.69;40.24;;
69608;Laerm;57251;52.248;4.812;2024-01-11T00:57:11;37.28;34.01;41.82;;
69608;Laerm;57251;52.248;4.812;2024-01-11T00:57:21;35.25;33.15;37.01;;
69608;Laerm;57251;52.248;4.812;2024-01-11T00:57:31;35.45;33.31;37.40;;
69608;Laerm;57251;52.248;4.812;2024-01-11T00:57:41;34.62;32.51;38.60;;
69608;Laerm;57251;52.248;4.812;2024-01-11T00:57:52;34.20;32.16;36.83;;
69608;Laerm;57251;52.248;4.812;2024-01-11T00:58:02;35.53;33.03;38.53;;
69608;Laerm;57251;52.248;4.812;2024-01-11T00:58:13;34.31;32.33;36.13;;
69608;Laerm;57251;52.248;4.812;2024-01-11T00:58:23;33.68;32.35;34.86;;